createdAt,value
2018-03-31T00:00:06.385Z,925.52
2018-03-31T00:01:14.544Z,925.51
2018-03-31T00:02:22.422Z,925.50
2018-03-31T00:03:30.544Z,925.51
2018-03-31T00:04:38.646Z,925.49
2018-03-31T00:05:46.621Z,925.49
2018-03-31T00:06:54.774Z,925.49
2018-03-31T00:08:02.795Z,925.48
2018-03-31T00:09:10.779Z,925.51
2018-03-31T00:10:18.884Z,925.47
2018-03-31T00:11:27.109Z,925.46
2018-03-31T00:12:34.968Z,925.46
2018-03-31T00:13:43.028Z,925.46
2018-03-31T00:14:51.356Z,925.36
2018-03-31T00:15:59.163Z,925.41
2018-03-31T00:17:07.319Z,925.38
2018-03-31T00:18:15.297Z,925.38
2018-03-31T00:19:23.448Z,925.40
2018-03-31T00:20:31.441Z,925.38
2018-03-31T00:21:39.435Z,925.38
2018-03-31T00:22:47.661Z,925.39
2018-03-31T00:23:55.583Z,925.36
2018-03-31T00:25:07.008Z,925.38
2018-03-31T00:26:12.476Z,925.39
2018-03-31T00:27:20.539Z,925.36
2018-03-31T00:28:28.762Z,925.40
2018-03-31T00:29:36.786Z,925.37
2018-03-31T00:30:44.717Z,925.36
2018-03-31T00:31:52.798Z,925.36
2018-03-31T00:33:00.970Z,925.35
2018-03-31T00:34:09.019Z,925.31
2018-03-31T00:35:17.104Z,925.33
2018-03-31T00:36:25.191Z,925.37
2018-03-31T00:37:33.077Z,925.37
2018-03-31T00:38:41.206Z,925.35
2018-03-31T00:39:49.373Z,925.39
2018-03-31T00:40:57.294Z,925.37
2018-03-31T00:42:05.383Z,925.38
2018-03-31T00:43:13.364Z,925.37
2018-03-31T00:44:21.519Z,925.36
2018-03-31T00:45:29.687Z,925.35
2018-03-31T00:46:37.563Z,925.32
2018-03-31T00:47:45.642Z,925.32
2018-03-31T00:48:53.883Z,925.31
2018-03-31T00:50:01.814Z,925.25
2018-03-31T00:51:09.954Z,925.30
2018-03-31T00:52:17.964Z,925.31
2018-03-31T00:53:25.960Z,925.30
2018-03-31T00:54:34.082Z,925.27
2018-03-31T00:55:42.117Z,925.28
2018-03-31T00:56:50.260Z,925.30
2018-03-31T00:57:58.153Z,925.33
2018-03-31T00:59:06.279Z,925.35
2018-03-31T01:00:14.282Z,925.30
2018-03-31T01:01:22.363Z,925.34
2018-03-31T01:02:30.515Z,925.36
2018-03-31T01:03:38.527Z,925.36
2018-03-31T01:04:46.638Z,925.34
2018-03-31T01:05:54.651Z,925.31
2018-03-31T01:07:02.619Z,925.32
2018-03-31T01:08:10.882Z,925.27
2018-03-31T01:09:18.778Z,925.27
2018-03-31T01:10:26.811Z,925.26
2018-03-31T01:11:34.925Z,925.23
2018-03-31T01:12:42.932Z,925.28
2018-03-31T01:13:51.182Z,925.25
2018-03-31T01:14:59.179Z,925.21
2018-03-31T01:16:07.352Z,925.23
2018-03-31T01:17:15.159Z,925.23
2018-03-31T01:18:23.322Z,925.25
2018-03-31T01:19:31.425Z,925.21
2018-03-31T01:20:39.338Z,925.24
2018-03-31T01:21:47.391Z,925.18
2018-03-31T01:22:55.537Z,925.26
2018-03-31T01:24:03.548Z,925.25
2018-03-31T01:25:12.167Z,925.20
2018-03-31T01:26:19.744Z,925.24
2018-03-31T01:27:27.893Z,925.20
2018-03-31T01:28:35.747Z,925.21
2018-03-31T01:29:43.837Z,925.23
2018-03-31T01:30:52.072Z,925.22
2018-03-31T01:31:59.990Z,925.22
2018-03-31T01:33:08.137Z,925.21
2018-03-31T01:34:16.088Z,925.20
2018-03-31T01:35:24.202Z,925.14
2018-03-31T01:36:32.254Z,925.12
2018-03-31T01:37:40.782Z,925.10
2018-03-31T01:38:48.465Z,925.06
2018-03-31T01:39:56.365Z,925.04
2018-03-31T01:41:04.480Z,925.07
2018-03-31T01:42:12.509Z,925.05
2018-03-31T01:43:20.542Z,925.04
2018-03-31T01:44:28.712Z,925.02
2018-03-31T01:45:36.718Z,924.96
2018-03-31T01:46:44.742Z,924.97
2018-03-31T01:47:52.778Z,924.95
2018-03-31T01:49:00.892Z,924.99
2018-03-31T01:50:09.060Z,924.93
2018-03-31T01:51:16.941Z,924.93
2018-03-31T01:52:25.182Z,924.92
2018-03-31T01:53:33.240Z,924.91
2018-03-31T01:54:41.194Z,924.89
2018-03-31T01:55:49.244Z,924.93
2018-03-31T01:56:57.286Z,924.93
2018-03-31T01:58:05.402Z,924.87
2018-03-31T01:59:13.565Z,924.84
2018-03-31T02:00:21.506Z,924.86
2018-03-31T02:01:29.468Z,924.85
2018-03-31T02:02:37.622Z,924.82
2018-03-31T02:03:45.644Z,924.80
2018-03-31T02:04:53.772Z,924.80
2018-03-31T02:06:01.795Z,924.81
2018-03-31T02:07:09.839Z,924.84
2018-03-31T02:08:17.872Z,924.81
2018-03-31T02:09:26.076Z,924.79
2018-03-31T02:10:34.111Z,924.77
2018-03-31T02:11:42.122Z,924.76
2018-03-31T02:12:50.247Z,924.77
2018-03-31T02:13:58.327Z,924.76
2018-03-31T02:15:06.189Z,924.79
2018-03-31T02:16:14.314Z,924.80
2018-03-31T02:17:22.442Z,924.76
2018-03-31T02:18:30.440Z,924.79
2018-03-31T02:19:38.592Z,924.82
2018-03-31T02:20:46.710Z,924.79
2018-03-31T02:21:54.672Z,924.83
2018-03-31T02:23:02.674Z,924.76
2018-03-31T02:24:10.680Z,924.83
2018-03-31T02:25:18.903Z,924.80
2018-03-31T02:26:26.997Z,924.79
2018-03-31T02:27:34.936Z,924.76
2018-03-31T02:28:42.919Z,924.77
2018-03-31T02:29:51.190Z,924.71
2018-03-31T02:30:59.121Z,924.70
2018-03-31T02:32:07.159Z,924.68
2018-03-31T02:33:15.199Z,924.69
2018-03-31T02:34:23.235Z,924.69
2018-03-31T02:35:31.440Z,924.63
2018-03-31T02:36:39.317Z,924.65
2018-03-31T02:37:47.465Z,924.62
2018-03-31T02:38:55.471Z,924.58
2018-03-31T02:40:03.528Z,924.58
2018-03-31T02:41:11.743Z,924.53
2018-03-31T02:42:19.791Z,924.53
2018-03-31T02:43:27.687Z,924.52
2018-03-31T02:44:35.871Z,924.47
2018-03-31T02:45:43.812Z,924.47
2018-03-31T02:46:52.036Z,924.45
2018-03-31T02:47:59.931Z,924.45
2018-03-31T02:49:08.090Z,924.47
2018-03-31T02:50:16.100Z,924.44
2018-03-31T02:51:24.091Z,924.44
2018-03-31T02:52:32.281Z,924.44
2018-03-31T02:53:40.278Z,924.39
2018-03-31T02:54:48.312Z,924.40
2018-03-31T02:55:56.351Z,924.38
2018-03-31T02:57:04.386Z,924.41
2018-03-31T02:58:12.648Z,924.38
2018-03-31T02:59:20.550Z,924.32
2018-03-31T03:00:28.577Z,924.31
2018-03-31T03:01:36.712Z,924.35
2018-03-31T03:02:44.693Z,924.38
2018-03-31T03:03:52.953Z,924.38
2018-03-31T03:05:00.800Z,924.37
2018-03-31T03:06:08.921Z,924.33
2018-03-31T03:07:16.988Z,924.35
2018-03-31T03:08:24.993Z,924.38
2018-03-31T03:09:33.160Z,924.35
2018-03-31T03:10:41.130Z,924.36
2018-03-31T03:11:49.157Z,924.35
2018-03-31T03:12:57.288Z,924.38
2018-03-31T03:14:05.285Z,924.40
2018-03-31T03:15:13.553Z,924.37
2018-03-31T03:16:21.561Z,924.38
2018-03-31T03:17:29.463Z,924.35
2018-03-31T03:18:37.566Z,924.36
2018-03-31T03:19:48.177Z,924.34
2018-03-31T03:20:56.136Z,924.35
2018-03-31T03:22:04.166Z,924.34
2018-03-31T03:23:12.378Z,924.30
2018-03-31T03:24:20.382Z,924.32
2018-03-31T03:25:28.442Z,924.30
2018-03-31T03:26:36.483Z,924.34
2018-03-31T03:27:44.614Z,924.33
2018-03-31T03:28:52.502Z,924.34
2018-03-31T03:30:00.566Z,924.38
2018-03-31T03:31:08.605Z,924.33
2018-03-31T03:32:16.786Z,924.33
2018-03-31T03:33:24.850Z,924.33
2018-03-31T03:34:32.789Z,924.34
2018-03-31T03:35:41.034Z,924.33
2018-03-31T03:36:49.018Z,924.32
2018-03-31T03:37:57.011Z,924.36
2018-03-31T03:39:05.150Z,924.36
2018-03-31T03:40:13.122Z,924.32
2018-03-31T03:41:21.168Z,924.25
2018-03-31T03:42:29.339Z,924.26
2018-03-31T03:43:37.287Z,924.25
2018-03-31T03:44:45.499Z,924.24
2018-03-31T03:45:53.444Z,924.25
2018-03-31T03:47:01.646Z,924.28
2018-03-31T03:48:09.512Z,924.27
2018-03-31T03:49:17.564Z,924.27
2018-03-31T03:50:25.606Z,924.26
2018-03-31T03:51:33.716Z,924.25
2018-03-31T03:52:41.848Z,924.27
2018-03-31T03:53:49.945Z,924.31
2018-03-31T03:54:57.968Z,924.29
2018-03-31T03:56:05.970Z,924.30
2018-03-31T03:57:13.998Z,924.30
2018-03-31T03:58:22.168Z,924.28
2018-03-31T03:59:30.196Z,924.29
2018-03-31T04:00:38.234Z,924.27
2018-03-31T04:01:46.212Z,924.26
2018-03-31T04:02:54.318Z,924.25
2018-03-31T04:04:02.490Z,924.25
2018-03-31T04:05:10.376Z,924.28
2018-03-31T04:06:18.576Z,924.23
2018-03-31T04:07:26.673Z,924.21
2018-03-31T04:08:34.642Z,924.22
2018-03-31T04:09:42.636Z,924.16
2018-03-31T04:10:50.674Z,924.18
2018-03-31T04:11:58.927Z,924.19
2018-03-31T04:13:06.809Z,924.16
2018-03-31T04:14:14.855Z,924.16
2018-03-31T04:15:22.990Z,924.20
2018-03-31T04:16:30.966Z,924.20
2018-03-31T04:17:39.185Z,924.20
2018-03-31T04:18:47.139Z,924.17
2018-03-31T04:19:55.248Z,924.19
2018-03-31T04:21:03.292Z,924.19
2018-03-31T04:22:11.388Z,924.18
2018-03-31T04:23:19.492Z,924.16
2018-03-31T04:24:27.389Z,924.21
2018-03-31T04:25:35.450Z,924.18
2018-03-31T04:26:43.531Z,924.22
2018-03-31T04:27:51.573Z,924.20
2018-03-31T04:28:59.795Z,924.18
2018-03-31T04:30:07.759Z,924.20
2018-03-31T04:31:15.850Z,924.16
2018-03-31T04:32:23.838Z,924.16
2018-03-31T04:33:32.120Z,924.17
2018-03-31T04:34:40.119Z,924.21
2018-03-31T04:35:47.991Z,924.17
2018-03-31T04:36:56.086Z,924.19
2018-03-31T04:38:04.086Z,924.18
2018-03-31T04:39:12.357Z,924.20
2018-03-31T04:40:20.227Z,924.24
2018-03-31T04:41:28.274Z,924.21
2018-03-31T04:42:36.371Z,924.24
2018-03-31T04:43:44.456Z,924.24
2018-03-31T04:44:52.555Z,924.23
2018-03-31T04:46:00.577Z,924.21
2018-03-31T04:47:08.782Z,924.21
2018-03-31T04:48:16.615Z,924.20
2018-03-31T04:49:24.870Z,924.23
2018-03-31T04:50:32.825Z,924.19
2018-03-31T04:51:40.904Z,924.22
2018-03-31T04:52:48.887Z,924.22
2018-03-31T04:53:56.950Z,924.23
2018-03-31T04:55:05.095Z,924.24
2018-03-31T04:56:13.145Z,924.19
2018-03-31T04:57:21.187Z,924.22
2018-03-31T04:58:29.160Z,924.20
2018-03-31T04:59:37.213Z,924.19
2018-03-31T05:00:45.427Z,924.20
2018-03-31T05:01:53.321Z,924.21
2018-03-31T05:03:01.497Z,924.25
2018-03-31T05:04:09.424Z,924.25
2018-03-31T05:05:17.569Z,924.27
2018-03-31T05:06:25.715Z,924.25
2018-03-31T05:07:33.682Z,924.27
2018-03-31T05:08:41.697Z,924.26
2018-03-31T05:09:49.803Z,924.28
2018-03-31T05:10:57.867Z,924.26
2018-03-31T05:12:05.971Z,924.26
2018-03-31T05:13:13.987Z,924.29
2018-03-31T05:14:21.998Z,924.33
2018-03-31T05:15:30.023Z,924.30
2018-03-31T05:16:38.142Z,924.30
2018-03-31T05:17:46.350Z,924.30
2018-03-31T05:18:54.351Z,924.28
2018-03-31T05:20:02.309Z,924.30
2018-03-31T05:21:10.323Z,924.27
2018-03-31T05:22:18.490Z,924.28
2018-03-31T05:23:26.610Z,924.30
2018-03-31T05:24:34.499Z,924.26
2018-03-31T05:25:42.767Z,924.29
2018-03-31T05:26:50.626Z,924.29
2018-03-31T05:27:58.699Z,924.27
2018-03-31T05:29:06.923Z,924.32
2018-03-31T05:30:15.090Z,924.32
2018-03-31T05:31:22.970Z,924.29
2018-03-31T05:32:30.997Z,924.33
2018-03-31T05:33:38.989Z,924.31
2018-03-31T05:34:47.243Z,924.32
2018-03-31T05:35:55.180Z,924.32
2018-03-31T05:37:03.154Z,924.34
2018-03-31T05:38:11.420Z,924.31
2018-03-31T05:39:19.319Z,924.25
2018-03-31T05:40:27.395Z,924.24
2018-03-31T05:41:35.534Z,924.24
2018-03-31T05:42:43.514Z,924.24
2018-03-31T05:43:51.508Z,924.26
2018-03-31T05:44:59.556Z,924.26
2018-03-31T05:46:07.780Z,924.26
2018-03-31T05:47:15.808Z,924.22
2018-03-31T05:48:23.771Z,924.23
2018-03-31T05:49:31.916Z,924.22
2018-03-31T05:50:39.921Z,924.23
2018-03-31T05:51:47.993Z,924.19
2018-03-31T05:52:56.161Z,924.24
2018-03-31T05:54:04.170Z,924.19
2018-03-31T05:55:12.293Z,924.22
2018-03-31T05:56:20.234Z,924.22
2018-03-31T05:57:28.279Z,924.21
2018-03-31T05:58:36.430Z,924.22
2018-03-31T05:59:44.355Z,924.19
2018-03-31T06:00:52.572Z,924.18
2018-03-31T06:02:00.512Z,924.14
2018-03-31T06:03:08.532Z,924.15
2018-03-31T06:04:16.672Z,924.14
2018-03-31T06:05:24.809Z,924.17
2018-03-31T06:06:32.823Z,924.21
2018-03-31T06:07:40.836Z,924.20
2018-03-31T06:08:48.825Z,924.20
2018-03-31T06:09:56.958Z,924.20
2018-03-31T06:11:05.104Z,924.19
2018-03-31T06:12:13.167Z,924.17
2018-03-31T06:13:21.060Z,924.19
2018-03-31T06:14:29.177Z,924.17
2018-03-31T06:15:37.200Z,924.15
2018-03-31T06:16:45.510Z,924.16
2018-03-31T06:17:53.473Z,924.17
2018-03-31T06:19:01.434Z,924.17
2018-03-31T06:20:09.442Z,924.17
2018-03-31T06:21:17.468Z,924.18
2018-03-31T06:22:25.609Z,924.19
2018-03-31T06:23:33.729Z,924.19
2018-03-31T06:24:41.702Z,924.20
2018-03-31T06:25:49.839Z,924.21
2018-03-31T06:26:57.833Z,924.22
2018-03-31T06:28:05.907Z,924.22
2018-03-31T06:29:13.912Z,924.21
2018-03-31T06:30:22.460Z,924.22
2018-03-31T06:31:30.597Z,924.21
2018-03-31T06:32:38.493Z,924.13
2018-03-31T06:33:46.643Z,924.14
2018-03-31T06:34:54.728Z,924.17
2018-03-31T06:36:02.670Z,924.17
2018-03-31T06:37:10.738Z,924.20
2018-03-31T06:38:18.763Z,924.21
2018-03-31T06:39:26.948Z,924.16
2018-03-31T06:40:34.962Z,924.18
2018-03-31T06:41:42.953Z,924.23
2018-03-31T06:42:51.033Z,924.16
2018-03-31T06:43:59.285Z,924.19
2018-03-31T06:45:07.257Z,924.21
2018-03-31T06:46:15.395Z,924.23
2018-03-31T06:47:23.290Z,924.24
2018-03-31T06:48:31.305Z,924.27
2018-03-31T06:49:39.461Z,924.26
2018-03-31T06:50:47.547Z,924.24
2018-03-31T06:51:55.495Z,924.28
2018-03-31T06:53:03.619Z,924.24
2018-03-31T06:54:11.651Z,924.25
2018-03-31T06:55:19.673Z,924.26
2018-03-31T06:56:27.944Z,924.24
2018-03-31T06:57:35.959Z,924.28
2018-03-31T06:58:43.880Z,924.24
2018-03-31T06:59:51.985Z,924.26
2018-03-31T07:01:00.015Z,924.26
2018-03-31T07:02:08.247Z,924.23
2018-03-31T07:03:16.190Z,924.23
2018-03-31T07:04:24.254Z,924.27
2018-03-31T07:05:32.265Z,924.27
2018-03-31T07:06:40.419Z,924.29
2018-03-31T07:07:48.611Z,924.30
2018-03-31T07:08:56.443Z,924.28
2018-03-31T07:10:04.666Z,924.28
2018-03-31T07:11:12.698Z,924.28
2018-03-31T07:12:20.684Z,924.29
2018-03-31T07:13:28.845Z,924.26
2018-03-31T07:14:36.727Z,924.25
2018-03-31T07:15:44.935Z,924.29
2018-03-31T07:16:52.857Z,924.28
2018-03-31T07:18:00.972Z,924.30
2018-03-31T07:19:09.033Z,924.26
2018-03-31T07:20:17.076Z,924.27
2018-03-31T07:21:25.275Z,924.20
2018-03-31T07:22:33.161Z,924.25
2018-03-31T07:23:41.266Z,924.20
2018-03-31T07:24:49.359Z,924.20
2018-03-31T07:25:57.365Z,924.20
2018-03-31T07:27:05.545Z,924.21
2018-03-31T07:28:13.511Z,924.16
2018-03-31T07:29:21.543Z,924.18
2018-03-31T07:30:29.638Z,924.14
2018-03-31T07:31:37.806Z,924.19
2018-03-31T07:32:45.795Z,924.17
2018-03-31T07:33:53.774Z,924.17
2018-03-31T07:35:01.908Z,924.18
2018-03-31T07:36:10.044Z,924.16
2018-03-31T07:37:17.989Z,924.18
2018-03-31T07:38:26.071Z,924.19
2018-03-31T07:39:34.210Z,924.19
2018-03-31T07:40:45.581Z,924.18
2018-03-31T07:41:50.300Z,924.19
2018-03-31T07:42:58.276Z,924.16
2018-03-31T07:44:06.410Z,924.18
2018-03-31T07:45:14.577Z,924.17
2018-03-31T07:46:22.493Z,924.18
2018-03-31T07:47:30.721Z,924.13
2018-03-31T07:48:38.638Z,924.16
2018-03-31T07:49:51.501Z,924.15
2018-03-31T07:50:55.178Z,924.14
2018-03-31T07:52:02.957Z,924.17
2018-03-31T07:53:10.915Z,924.19
2018-03-31T07:54:18.914Z,924.17
2018-03-31T07:55:27.556Z,924.16
2018-03-31T07:56:35.183Z,924.18
2018-03-31T07:57:43.118Z,924.25
2018-03-31T07:58:51.473Z,924.21
2018-03-31T07:59:59.237Z,924.24
2018-03-31T08:01:07.586Z,924.25
2018-03-31T08:02:15.580Z,924.22
2018-03-31T08:03:23.451Z,924.26
2018-03-31T08:04:31.658Z,924.26
2018-03-31T08:05:39.919Z,924.24
2018-03-31T08:06:47.911Z,924.23
2018-03-31T08:07:56.942Z,924.21
2018-03-31T08:09:04.332Z,924.21
2018-03-31T08:10:11.993Z,924.21
2018-03-31T08:11:20.110Z,924.20
2018-03-31T08:12:35.516Z,924.25
2018-03-31T08:13:36.057Z,924.25
2018-03-31T08:14:44.252Z,924.24
2018-03-31T08:15:52.526Z,924.28
2018-03-31T08:17:00.391Z,924.26
2018-03-31T08:18:08.210Z,924.27
2018-03-31T08:19:16.276Z,924.27
2018-03-31T08:20:24.533Z,924.27
2018-03-31T08:21:32.387Z,924.27
2018-03-31T08:22:40.507Z,924.28
2018-03-31T08:23:48.515Z,924.28
2018-03-31T08:24:56.578Z,924.31
2018-03-31T08:26:04.845Z,924.32
2018-03-31T08:27:12.891Z,924.32
2018-03-31T08:28:20.822Z,924.30
2018-03-31T08:29:28.824Z,924.32
2018-03-31T08:30:37.005Z,924.30
2018-03-31T08:31:44.983Z,924.32
2018-03-31T08:32:53.138Z,924.33
2018-03-31T08:34:01.314Z,924.30
2018-03-31T08:35:09.277Z,924.29
2018-03-31T08:36:17.328Z,924.31
2018-03-31T08:37:25.394Z,924.35
2018-03-31T08:38:33.428Z,924.36
2018-03-31T08:39:41.677Z,924.40
2018-03-31T08:40:49.677Z,924.39
2018-03-31T08:41:57.543Z,924.39
2018-03-31T08:43:05.631Z,924.42
2018-03-31T08:44:14.222Z,924.43
2018-03-31T08:45:21.717Z,924.43
2018-03-31T08:46:30.987Z,924.47
2018-03-31T08:47:37.846Z,924.46
2018-03-31T08:48:47.660Z,924.46
2018-03-31T08:49:54.113Z,924.49
2018-03-31T08:51:02.070Z,924.47
2018-03-31T08:52:10.131Z,924.51
2018-03-31T08:53:18.878Z,924.53
2018-03-31T08:54:26.201Z,924.52
2018-03-31T08:55:34.456Z,924.48
2018-03-31T08:56:42.321Z,924.48
2018-03-31T08:57:50.535Z,924.48
2018-03-31T08:58:58.564Z,924.47
2018-03-31T09:00:06.811Z,924.51
2018-03-31T09:01:14.951Z,924.52
2018-03-31T09:02:23.085Z,924.54
2018-03-31T09:03:30.963Z,924.49
2018-03-31T09:04:39.141Z,924.53
2018-03-31T09:05:47.092Z,924.50
2018-03-31T09:06:55.351Z,924.52
2018-03-31T09:08:03.676Z,924.53
2018-03-31T09:09:11.429Z,924.51
2018-03-31T09:10:19.945Z,924.50
2018-03-31T09:11:27.482Z,924.49
2018-03-31T09:12:35.725Z,924.51
2018-03-31T09:13:43.582Z,924.48
2018-03-31T09:14:51.659Z,924.53
2018-03-31T09:15:59.656Z,924.51
2018-03-31T09:17:07.966Z,924.54
2018-03-31T09:18:15.958Z,924.53
2018-03-31T09:19:23.884Z,924.55
2018-03-31T09:20:31.973Z,924.53
2018-03-31T09:21:40.134Z,924.52
2018-03-31T09:22:48.199Z,924.56
2018-03-31T09:23:56.129Z,924.53
2018-03-31T09:25:04.638Z,924.53
2018-03-31T09:26:12.334Z,924.60
2018-03-31T09:27:20.468Z,924.59
2018-03-31T09:28:28.471Z,924.60
2018-03-31T09:29:36.487Z,924.59
2018-03-31T09:30:44.494Z,924.62
2018-03-31T09:31:52.689Z,924.61
2018-03-31T09:33:00.696Z,924.63
2018-03-31T09:34:08.653Z,924.60
2018-03-31T09:35:16.817Z,924.59
2018-03-31T09:36:24.805Z,924.56
2018-03-31T09:37:32.996Z,924.53
2018-03-31T09:38:40.924Z,924.58
2018-03-31T09:39:48.979Z,924.63
2018-03-31T09:40:57.168Z,924.58
2018-03-31T09:42:05.202Z,924.62
2018-03-31T09:43:13.167Z,924.66
2018-03-31T09:44:21.317Z,924.62
2018-03-31T09:45:29.439Z,924.64
2018-03-31T09:46:37.579Z,924.67
2018-03-31T09:47:45.498Z,924.70
2018-03-31T09:48:53.480Z,924.65
2018-03-31T09:50:01.595Z,924.68
2018-03-31T09:51:09.745Z,924.68
2018-03-31T09:52:17.720Z,924.71
2018-03-31T09:53:25.778Z,924.71
2018-03-31T09:55:41.868Z,924.67
2018-03-31T09:56:50.039Z,924.70
2018-03-31T09:57:58.103Z,924.69
2018-03-31T09:59:06.732Z,924.71
2018-03-31T10:00:14.520Z,924.71
2018-03-31T10:01:22.917Z,924.69
2018-03-31T10:02:31.484Z,924.74
2018-03-31T10:03:38.728Z,924.74
2018-03-31T10:05:02.061Z,924.75
2018-03-31T10:05:54.905Z,924.76
2018-03-31T10:07:09.026Z,924.72
2018-03-31T10:08:34.336Z,924.70
2018-03-31T10:09:27.211Z,924.66
2018-03-31T10:10:33.460Z,924.65
2018-03-31T10:11:35.249Z,924.65
2018-03-31T10:12:46.777Z,924.66
2018-03-31T10:13:51.522Z,924.64
2018-03-31T10:14:59.407Z,924.66
2018-03-31T10:16:07.639Z,924.70
2018-03-31T10:17:15.585Z,924.67
2018-03-31T10:18:23.816Z,924.68
2018-03-31T10:19:31.684Z,924.69
2018-03-31T10:20:39.744Z,924.72
2018-03-31T10:21:47.948Z,924.73
2018-03-31T10:22:55.868Z,924.71
2018-03-31T10:24:03.952Z,924.73
2018-03-31T10:25:12.082Z,924.68
2018-03-31T10:26:20.141Z,924.64
2018-03-31T10:27:28.271Z,924.68
2018-03-31T10:28:36.265Z,924.67
2018-03-31T10:29:44.255Z,924.66
2018-03-31T10:30:52.380Z,924.69
2018-03-31T10:32:00.578Z,924.71
2018-03-31T10:33:08.638Z,924.76
2018-03-31T10:34:16.548Z,924.79
2018-03-31T10:35:24.651Z,924.77
2018-03-31T10:36:32.667Z,924.70
2018-03-31T10:37:40.810Z,924.68
2018-03-31T10:38:48.900Z,924.61
2018-03-31T10:39:56.949Z,924.61
2018-03-31T10:41:05.054Z,924.58
2018-03-31T10:42:13.068Z,924.55
2018-03-31T10:43:21.088Z,924.53
2018-03-31T10:44:29.177Z,924.53
2018-03-31T10:45:37.283Z,924.57
2018-03-31T10:46:45.437Z,924.49
2018-03-31T10:47:53.327Z,924.51
2018-03-31T10:49:01.441Z,924.53
2018-03-31T10:50:09.449Z,924.52
2018-03-31T10:51:17.550Z,924.53
2018-03-31T10:52:25.595Z,924.52
2018-03-31T10:53:33.809Z,924.48
2018-03-31T10:54:41.721Z,924.47
2018-03-31T10:55:49.758Z,924.45
2018-03-31T10:56:57.952Z,924.43
2018-03-31T10:58:05.993Z,924.43
2018-03-31T10:59:14.188Z,924.48
2018-03-31T11:00:22.615Z,924.42
2018-03-31T11:01:30.381Z,924.39
2018-03-31T11:04:22.551Z,924.42
2018-03-31T11:07:19.227Z,924.33
2018-03-31T11:08:25.001Z,924.37
2018-03-31T11:09:33.908Z,924.31
2018-03-31T11:10:41.412Z,924.32
2018-03-31T11:11:49.217Z,924.24
2018-03-31T11:12:57.406Z,924.27
2018-03-31T11:14:05.337Z,924.29
2018-03-31T11:15:13.365Z,924.28
2018-03-31T11:16:21.418Z,924.30
2018-03-31T11:17:29.484Z,924.27
2018-03-31T11:22:04.485Z,924.33
2018-03-31T11:23:09.801Z,924.33
2018-03-31T11:24:17.854Z,924.38
2018-03-31T11:25:26.012Z,924.44
2018-03-31T11:26:34.063Z,924.43
2018-03-31T11:27:42.187Z,924.53
2018-03-31T11:28:50.108Z,924.51
2018-03-31T11:29:58.228Z,924.56
2018-03-31T11:31:06.316Z,924.58
2018-03-31T11:32:14.343Z,924.59
2018-03-31T11:33:22.468Z,924.58
2018-03-31T11:34:30.441Z,924.60
2018-03-31T11:35:38.485Z,924.59
2018-03-31T11:36:46.578Z,924.59
2018-03-31T11:37:54.773Z,924.57
2018-03-31T11:39:05.232Z,924.59
2018-03-31T11:40:11.318Z,924.58
2018-03-31T11:41:18.831Z,924.61
2018-03-31T11:42:27.204Z,924.62
2018-03-31T11:43:34.922Z,924.60
2018-03-31T11:44:43.165Z,924.58
2018-03-31T11:45:51.087Z,924.59
2018-03-31T11:46:59.107Z,924.60
2018-03-31T11:48:07.279Z,924.58
2018-03-31T11:49:15.287Z,924.60
2018-03-31T11:50:23.653Z,924.56
2018-03-31T11:51:31.485Z,924.53
2018-03-31T11:52:39.589Z,924.53
2018-03-31T11:53:47.497Z,924.57
2018-03-31T11:54:55.589Z,924.57
2018-03-31T11:56:03.782Z,924.57
2018-03-31T11:57:11.693Z,924.57
2018-03-31T11:58:19.789Z,924.58
2018-03-31T11:59:27.828Z,924.57
2018-03-31T12:00:35.890Z,924.60
2018-03-31T12:01:44.109Z,924.60
2018-03-31T12:02:52.028Z,924.65
2018-03-31T12:04:00.178Z,924.64
2018-03-31T12:05:08.237Z,924.66
2018-03-31T12:06:16.240Z,924.66
2018-03-31T12:07:24.468Z,924.65
2018-03-31T12:08:32.348Z,924.66
2018-03-31T12:09:40.415Z,924.66
2018-03-31T12:10:48.558Z,924.69
2018-03-31T12:11:56.693Z,924.70
2018-03-31T12:13:04.786Z,924.71
2018-03-31T12:14:12.712Z,924.74
2018-03-31T12:15:20.935Z,924.73
2018-03-31T12:16:29.459Z,924.73
2018-03-31T12:17:36.950Z,924.72
2018-03-31T12:18:44.968Z,924.74
2018-03-31T12:19:53.154Z,924.75
2018-03-31T12:21:01.115Z,924.72
2018-03-31T12:22:09.266Z,924.78
2018-03-31T12:23:17.218Z,924.78
2018-03-31T12:24:25.290Z,924.83
2018-03-31T12:25:33.467Z,924.83
2018-03-31T12:26:41.407Z,924.80
2018-03-31T12:27:49.614Z,924.77
2018-03-31T12:28:57.670Z,924.78
2018-03-31T12:30:05.603Z,924.70
2018-03-31T12:31:13.693Z,924.68
2018-03-31T12:32:21.734Z,924.68
2018-03-31T12:33:29.984Z,924.61
2018-03-31T12:34:38.441Z,924.61
2018-03-31T12:35:46.001Z,924.53
2018-03-31T12:36:54.079Z,924.52
2018-03-31T12:38:02.095Z,924.54
2018-03-31T12:39:10.320Z,924.55
2018-03-31T12:40:18.349Z,924.55
2018-03-31T12:41:26.350Z,924.57
2018-03-31T12:42:34.336Z,924.61
2018-03-31T12:43:42.413Z,924.59
2018-03-31T12:44:50.512Z,924.63
2018-03-31T12:45:58.609Z,924.59
2018-03-31T12:47:06.615Z,924.67
2018-03-31T12:48:14.788Z,924.62
2018-03-31T12:49:22.945Z,924.64
2018-03-31T12:50:30.916Z,924.58
2018-03-31T12:51:38.970Z,924.58
2018-03-31T12:52:47.040Z,924.56
2018-03-31T12:53:55.048Z,924.56
2018-03-31T12:55:03.283Z,924.53
2018-03-31T12:56:11.280Z,924.59
2018-03-31T12:57:19.376Z,924.57
2018-03-31T12:58:27.307Z,924.56
2018-03-31T12:59:35.560Z,924.52
2018-03-31T13:00:43.559Z,924.49
2018-03-31T13:01:51.468Z,924.48
2018-03-31T13:02:59.530Z,924.52
2018-03-31T13:04:07.679Z,924.47
2018-03-31T13:05:15.812Z,924.49
2018-03-31T13:06:23.923Z,924.52
2018-03-31T13:07:32.399Z,924.48
2018-03-31T13:08:39.892Z,924.46
2018-03-31T13:09:47.938Z,924.51
2018-03-31T13:10:56.061Z,924.53
2018-03-31T13:12:04.207Z,924.51
2018-03-31T13:13:12.459Z,924.50
2018-03-31T13:14:20.273Z,924.45
2018-03-31T13:15:28.328Z,924.42
2018-03-31T13:16:36.404Z,924.36
2018-03-31T13:17:44.576Z,924.32
2018-03-31T13:18:52.511Z,924.30
2018-03-31T13:20:00.596Z,924.31
2018-03-31T13:21:08.684Z,924.27
2018-03-31T13:22:16.690Z,924.27
2018-03-31T13:23:25.019Z,924.23
2018-03-31T13:24:32.812Z,924.24
2018-03-31T13:25:40.880Z,924.19
2018-03-31T13:26:48.982Z,924.21
2018-03-31T13:27:57.001Z,924.15
2018-03-31T13:29:05.231Z,924.17
2018-03-31T13:30:13.308Z,924.19
2018-03-31T13:31:21.237Z,924.15
2018-03-31T13:32:29.304Z,924.17
2018-03-31T13:33:37.365Z,924.14
2018-03-31T13:34:45.432Z,924.18
2018-03-31T13:35:53.653Z,924.19
2018-03-31T13:37:02.069Z,924.20
2018-03-31T13:38:09.654Z,924.24
2018-03-31T13:39:17.646Z,924.30
2018-03-31T13:40:25.737Z,924.29
2018-03-31T13:41:34.310Z,924.33
2018-03-31T13:42:41.849Z,924.29
2018-03-31T13:43:49.930Z,924.29
2018-03-31T13:44:58.114Z,924.27
2018-03-31T13:46:06.080Z,924.26
2018-03-31T13:47:14.278Z,924.21
2018-03-31T13:48:22.205Z,924.20
2018-03-31T13:49:30.284Z,924.23
2018-03-31T13:50:38.388Z,924.19
2018-03-31T13:51:46.463Z,924.22
2018-03-31T13:52:54.568Z,924.21
2018-03-31T13:54:02.510Z,924.20
2018-03-31T13:55:10.877Z,924.19
2018-03-31T13:56:18.789Z,924.24
2018-03-31T13:57:26.733Z,924.23
2018-03-31T13:58:34.938Z,924.20
2018-03-31T13:59:42.869Z,924.17
2018-03-31T14:00:50.896Z,924.18
2018-03-31T14:01:59.153Z,924.16
2018-03-31T14:03:07.190Z,924.13
2018-03-31T14:04:15.174Z,924.16
2018-03-31T14:05:23.339Z,924.13
2018-03-31T14:06:31.276Z,924.17
2018-03-31T14:07:39.367Z,924.11
2018-03-31T14:08:47.423Z,924.20
2018-03-31T14:09:55.726Z,924.17
2018-03-31T14:11:03.643Z,924.17
2018-03-31T14:12:11.573Z,924.20
2018-03-31T14:13:19.640Z,924.19
2018-03-31T14:14:27.699Z,924.17
2018-03-31T14:15:35.764Z,924.16
2018-03-31T14:16:44.011Z,924.17